• Join FlightAware (Why Join?)
  • Login
  • US Flag 
12:24AM EDT


 

Airport Tracker/Info


-or-


 

Live Flight TrackerFlight Track Log ✈ SKW5510 ✈ 27-Apr-2013 ✈ KORD - KMSN

Flight Track Log - Related Links

Times and Time Zones

All times are in EDT time to prevent confusion due to time zone crossing. See the SKW5510 flight status page for this flight to view local times or setup timezone preferences in your user account.

Time Position Orientation Groundspeed Altitude Reporting Facility
EDT Latitude Longitude Course Direction KTS MPH feet Rate Location/Type
05:35PM 41.9381 -87.9100 346° North 151 174 1,700  Level Chicago Center
05:35PM 41.9333 -87.8833 103° East 175 201 2,300 1,800 Climbing Chicago TRACON
05:36PM 41.9333 -87.8000 90° East 258 297 4,200 2,520 Climbing Chicago TRACON
05:37PM 42.0000 -87.7833 11° North 288 331 7,100 2,520 Climbing Chicago TRACON
05:38PM 42.2235 -87.9850 350° North  Level FlightAware Approximate
05:39PM 42.3108 -88.0069 350° North  Level FlightAware Approximate
05:39PM 42.1428 -87.7878 359° North 308 354 11,200  Level Chicago Center
05:40PM 42.3958 -88.0396 340° North  Level FlightAware Approximate
05:40PM 42.2633 -87.7964 357° North 357 411 13,600  Level Chicago Center
05:41PM 42.4822 -88.0607 346° North  Level FlightAware Approximate
05:41PM 42.3669 -87.8050 356° North 368 423 15,700  Level Chicago Center
05:42PM 42.4689 -87.8519 341° North 392 451 16,000 120 Climbing Chicago Center
05:43PM 42.5656 -87.9172 334° Northwest 389 448 16,000  Level Chicago Center
05:44PM 42.6608 -87.9831 333° Northwest 386 444 16,000  Level Chicago Center
05:45PM 42.7508 -88.0647 326° Northwest 386 444 16,100  Climbing Chicago Center
05:46PM 42.8375 -88.1497 324° Northwest 386 444 16,000 -840 Descending Chicago Center
05:47PM 42.9392 -88.2525 324° Northwest 387 445 14,500 -1,020 Descending Chicago Center
05:48PM 42.9781 -88.3806 293° West 367 422 14,000 -300 Descending Chicago Center
05:50PM 43.0033 -88.5161 284° West 363 418 14,000  Level Chicago Center
05:51PM 43.0319 -88.6503 286° West 365 420 14,000 -60 Level Chicago Center
05:52PM 43.0556 -88.7856 283° West 364 419 13,900 -1,620 Descending Chicago Center
05:53PM 43.0836 -88.9022 288° West 342 394 10,800 -2,820 Descending Chicago Center
05:54PM 43.1400 -88.9831 314° West 299 344 8,100 -2,760 Descending Chicago Center
05:55PM 43.1992 -89.0556 318° Northwest 290 334 5,200 -2,460 Descending Chicago Center
05:56PM 43.2314 -89.1492 295° West 259 298 3,100 -1,080 Descending Chicago Center
05:57PM 43.2283 -89.2336 267° West 232 267 3,000 -120 Descending Chicago Center